Impacts TAF Board
For situational awareness. Not to be used for flight planning purposes.
IDs:

KMCO - Orlando Intl, FL, US

Issued at 0258 UTC 19 Oct 2021
Updated at 0338 UTC 19 Oct 2021
Potential Impact None Slight Moderate High
Time0253Z 19/04Z 19/05Z 19/06Z 19/07Z 19/08Z 19/09Z 19/10Z 19/11Z 19/12Z 19/13Z 19/14Z 19/15Z 19/16Z>>
Type OBS PRVL PRVL PRVL PRVL PRVL PRVL PRVL PRVL PRVL PRVL PRVL PRVL PRVL
VIS 10 >6 >6 >6 >6 >6 >6 >6 >6 >6 >6 >6 >6 >6
CIG 300 250 250 250 250 250 250 250 250 250 250 250 -- --
Cover BKN BKN BKN BKN BKN BKN BKN BKN BKN BKN BKN BKN SCT SCT
FltCat VFR VFR VFR VFR VFR VFR VFR VFR VFR VFR VFR VFR VFR VFR
WX -- -- -- -- -- -- -- -- -- -- -- -- -- --
WDir 20 30 30 30 30 30 30 30 30 30 30 30 70 70
WSpd 6 5 5 5 5 5 5 5 5 5 5 5 11 11
WGst -- -- -- -- -- -- -- -- -- -- -- -- -- --
Raw TAF
KMCO 190258Z 1903/2006 03005KT P6SM FEW060 BKN250
  FM191500 07011KT P6SM SCT050
  FM200200 VRB03KT P6SM FEW060 SCT250


Raw METAR
KMCO 190253Z 02006KT 10SM FEW070 BKN300 22/14 A3013 RMK AO2 SLP201 T02170139 51014
KMCO 190153Z 04007KT 10SM FEW060 SCT250 BKN300 22/14 A3012 RMK AO2 SLP197 T02220144
KMCO 190053Z 05006KT 10SM SCT250 BKN300 23/14 A3010 RMK AO2 SLP192 T02280144

METAR Board
Radar Display
Forecast Discussion
For situational awareness. Not to be used for flight planning purposes.